Terminal Aerodrome Forecast
Issued by NWS Charleston, WV

Home | Current Version | Previous Version | Text Only | Print | Product List | Glossary On
Versions: 1 2 3 4 5 6 7 8 9 10 11 12 13 14 15 16 17 18 19 20 21 22 23 24
000
FTUS41 KRLX 221800 AAA
TAFPKB
TAF AMD
KPKB 221847Z 2219/2318 30006KT P6SM BKN040
     FM222100 31006KT P6SM SCT040
     FM230100 00000KT P6SM FEW040
     FM230700 00000KT 5SM BR SCT250
     FM230900 00000KT 1/4SM FG VV001
     FM231300 00000KT 3SM BR FEW002
     FM231400 00000KT P6SM SKC=

USA.gov is the U.S. government's official web portal to all federal, state and local government web resources and services.